Time;durP1;ratioP1;P1;durP2;ratioP2;P2;SDS_P1;SDS_P2;PMS_P1;PMS_P2;Temp;Humidity;BMP_temperature;BMP_pressure;BME280_temperature;BME280_humidity;BME280_pressure;Samples;Min_cycle;Max_cycle;Signal;HPM_P1;HPM_P2
2022/07/03 00:02:00;;;;;;;5.37;4.83;;;17.70;99.90;;;;;;4993903;28;20885;-74
2022/07/03 00:04:26;;;;;;;6.73;4.87;;;17.70;99.90;;;;;;5004421;28;20452;-74
2022/07/03 00:06:54;;;;;;;9.63;5.00;;;17.60;99.90;;;;;;4993031;28;21006;-74
2022/07/03 00:09:21;;;;;;;7.83;4.93;;;17.60;99.90;;;;;;5006063;28;20453;-74
2022/07/03 00:11:48;;;;;;;5.23;4.73;;;17.50;99.90;;;;;;5011851;28;20442;-74
2022/07/03 00:14:16;;;;;;;8.50;5.37;;;17.50;99.90;;;;;;5004845;28;20858;-74
2022/07/03 00:16:42;;;;;;;5.40;4.90;;;17.40;99.90;;;;;;5011867;28;20458;-74
2022/07/03 00:19:09;;;;;;;5.00;4.50;;;17.30;99.90;;;;;;5010579;28;20514;-74
2022/07/03 00:21:41;;;;;;;8.23;5.23;;;17.20;99.90;;;;;;5011928;28;20457;-74
2022/07/03 00:24:14;;;;;;;11.10;6.90;;;17.20;99.90;;;;;;5011534;28;20437;-74
2022/07/03 00:26:44;;;;;;;20.00;9.87;;;17.10;99.90;;;;;;5004176;28;20462;-75
2022/07/03 00:29:13;;;;;;;21.77;8.37;;;17.10;99.90;;;;;;4988542;28;20425;-74
2022/07/03 00:31:43;;;;;;;10.10;6.73;;;17.00;99.90;;;;;;5001087;28;20430;-74
2022/07/03 00:34:12;;;;;;;7.10;4.70;;;17.00;99.90;;;;;;4984638;28;20429;-74
2022/07/03 00:36:39;;;;;;;10.17;4.40;;;16.90;99.90;;;;;;4992542;28;20422;-74
2022/07/03 00:39:06;;;;;;;5.90;3.73;;;16.90;99.90;;;;;;5002719;28;20500;-74
2022/07/03 00:41:34;;;;;;;5.70;4.03;;;16.80;99.90;;;;;;5011175;28;20485;-75
2022/07/03 00:44:02;;;;;;;6.50;3.73;;;16.80;99.90;;;;;;5009762;28;20483;-74
2022/07/03 00:46:29;;;;;;;4.57;4.00;;;16.70;99.90;;;;;;5011039;28;20454;-74
2022/07/03 00:48:59;;;;;;;4.20;3.70;;;16.70;99.90;;;;;;5011320;28;20428;-74
2022/07/03 00:51:27;;;;;;;6.53;4.40;;;16.70;99.90;;;;;;5011482;28;20425;-75
2022/07/03 00:53:57;;;;;;;9.03;4.00;;;16.70;99.90;;;;;;4995151;28;20783;-74
2022/07/03 00:56:26;;;;;;;5.00;4.40;;;16.70;99.90;;;;;;4992481;28;20451;-74
2022/07/03 00:58:55;;;;;;;8.17;4.30;;;16.70;99.90;;;;;;4992166;28;20418;-74
2022/07/03 01:01:24;;;;;;;9.47;4.50;;;16.60;99.90;;;;;;4992102;28;20451;-74
2022/07/03 01:04:04;;;;;;;4.30;3.90;;;16.60;99.90;;;;;;4995575;28;20479;-74
2022/07/03 01:06:36;;;;;;;4.53;3.80;;;16.60;99.90;;;;;;4996421;28;20976;-74
2022/07/03 01:09:04;;;;;;;3.63;3.33;;;16.60;99.90;;;;;;4991720;28;20909;-74
2022/07/03 01:11:38;;;;;;;3.70;3.40;;;16.50;99.90;;;;;;4992315;28;20441;-75
2022/07/03 01:14:15;;;;;;;5.43;3.13;;;16.50;99.90;;;;;;4993308;28;20430;-75
2022/07/03 01:16:50;;;;;;;5.43;3.50;;;16.40;99.90;;;;;;5010997;28;20850;-74
2022/07/03 01:19:37;;;;;;;5.33;3.50;;;16.30;99.90;;;;;;5003347;28;20432;-74
2022/07/03 01:22:28;;;;;;;3.70;3.17;;;16.30;99.90;;;;;;5007298;28;20569;-74
2022/07/03 01:25:17;;;;;;;5.90;3.23;;;16.20;99.90;;;;;;5008456;28;20902;-74
2022/07/03 01:28:00;;;;;;;3.70;3.40;;;16.20;99.90;;;;;;5010892;28;20947;-74
2022/07/03 01:30:28;;;;;;;3.70;3.40;;;16.20;99.90;;;;;;5010900;28;20449;-74
2022/07/03 01:32:59;;;;;;;4.17;3.30;;;16.20;99.90;;;;;;5010690;28;20493;-75
2022/07/03 01:35:32;;;;;;;3.90;3.60;;;16.20;99.90;;;;;;4994693;28;20535;-74
2022/07/03 01:38:04;;;;;;;5.23;3.50;;;16.20;99.90;;;;;;5004102;28;20426;-74
2022/07/03 01:40:33;;;;;;;4.00;3.30;;;16.10;99.90;;;;;;4984317;28;20455;-74
2022/07/03 01:43:04;;;;;;;4.40;4.00;;;16.10;99.90;;;;;;4991714;28;20516;-74
2022/07/03 01:45:32;;;;;;;4.37;3.73;;;16.10;99.90;;;;;;4985203;28;20499;-74
2022/07/03 01:48:00;;;;;;;3.87;3.50;;;16.10;99.90;;;;;;4991961;28;20434;-75
2022/07/03 01:50:29;;;;;;;4.50;4.10;;;16.00;99.90;;;;;;4991866;28;20437;-74
2022/07/03 01:53:01;;;;;;;6.57;3.70;;;16.00;99.90;;;;;;4992040;28;20509;-74
2022/07/03 01:55:31;;;;;;;3.43;3.23;;;16.00;99.90;;;;;;4991403;28;20846;-74
2022/07/03 01:57:58;;;;;;;6.70;4.10;;;16.00;99.90;;;;;;4999718;28;20563;-75
2022/07/03 02:00:27;;;;;;;3.80;3.47;;;15.90;99.90;;;;;;4991547;28;20922;-74
2022/07/03 02:02:58;;;;;;;4.60;3.37;;;15.90;99.90;;;;;;4986832;28;20458;-74
2022/07/03 02:05:34;;;;;;;4.93;4.00;;;15.90;99.90;;;;;;5000560;28;20442;-74
2022/07/03 02:08:11;;;;;;;4.37;4.00;;;15.90;99.90;;;;;;4994904;28;20480;-74
2022/07/03 02:10:45;;;;;;;3.80;3.50;;;15.80;99.90;;;;;;4993505;28;20433;-74
2022/07/03 02:13:17;;;;;;;4.27;3.87;;;15.80;99.90;;;;;;5013261;28;20511;-74
2022/07/03 02:15:46;;;;;;;4.00;3.70;;;15.80;99.90;;;;;;5007235;28;20485;-74
2022/07/03 02:18:27;;;;;;;4.97;3.57;;;15.70;99.90;;;;;;5013739;28;20460;-74
2022/07/03 02:21:03;;;;;;;4.07;3.67;;;15.70;99.90;;;;;;4998340;28;20989;-74
2022/07/03 02:23:32;;;;;;;5.03;4.53;;;15.70;99.90;;;;;;5012441;28;20807;-74
2022/07/03 02:26:02;;;;;;;4.60;4.10;;;15.70;99.90;;;;;;5013875;28;21071;-75
2022/07/03 02:28:40;;;;;;;3.80;3.50;;;15.70;99.90;;;;;;5012507;28;20480;-74
2022/07/03 02:31:15;;;;;;;4.10;3.70;;;15.60;99.90;;;;;;5006895;28;20430;-74
2022/07/03 02:33:42;;;;;;;3.80;3.50;;;15.60;99.90;;;;;;4986918;28;20945;-75
2022/07/03 02:36:12;;;;;;;6.00;3.70;;;15.60;99.90;;;;;;4994778;28;20520;-74
2022/07/03 02:38:41;;;;;;;7.10;4.03;;;15.60;99.90;;;;;;5013056;28;20496;-74
2022/07/03 02:41:13;;;;;;;3.83;3.53;;;15.50;99.90;;;;;;5013318;28;20781;-74
2022/07/03 02:43:51;;;;;;;4.00;3.70;;;15.50;99.90;;;;;;4995698;28;20458;-74
2022/07/03 02:49:17;;;;;;;3.80;3.40;;;15.50;99.90;;;;;;4994504;28;20456;-74
2022/07/03 02:51:52;;;;;;;5.13;3.60;;;15.50;99.90;;;;;;4994615;28;20987;-75
2022/07/03 02:54:19;;;;;;;5.63;3.03;;;15.50;99.90;;;;;;4994816;28;20498;-74
2022/07/03 02:57:00;;;;;;;4.77;3.40;;;15.50;99.90;;;;;;5009717;28;20430;-74
2022/07/03 02:59:44;;;;;;;4.80;3.33;;;15.50;99.90;;;;;;5010617;28;20508;-74
2022/07/03 03:02:18;;;;;;;3.40;3.20;;;15.40;99.90;;;;;;5013557;28;20505;-74
2022/07/03 03:04:47;;;;;;;4.47;3.53;;;15.50;99.90;;;;;;4984109;28;20480;-74
2022/07/03 03:07:17;;;;;;;3.73;3.43;;;15.50;99.90;;;;;;4990216;28;20918;-75
2022/07/03 03:09:45;;;;;;;3.73;3.43;;;15.40;99.90;;;;;;5001997;28;20447;-75
2022/07/03 03:12:13;;;;;;;4.37;3.40;;;15.40;99.90;;;;;;4994137;28;20467;-75
2022/07/03 03:14:42;;;;;;;4.53;4.00;;;15.40;99.90;;;;;;4993848;28;20525;-74
2022/07/03 03:17:10;;;;;;;3.00;2.80;;;15.30;99.90;;;;;;4994116;28;20502;-74
2022/07/03 03:19:41;;;;;;;3.73;3.17;;;15.30;99.90;;;;;;4994879;28;20455;-74
2022/07/03 03:22:16;;;;;;;4.03;3.13;;;15.30;99.90;;;;;;4996340;28;20462;-74
2022/07/03 03:24:44;;;;;;;3.97;3.23;;;15.30;99.90;;;;;;5011479;28;20481;-75
2022/07/03 03:27:11;;;;;;;4.60;3.20;;;15.30;99.90;;;;;;5013026;28;20437;-74
2022/07/03 03:29:38;;;;;;;3.80;3.20;;;15.30;99.90;;;;;;5012586;28;20457;-74
2022/07/03 03:32:06;;;;;;;4.00;3.67;;;15.30;99.90;;;;;;5011066;28;20987;-74
2022/07/03 03:34:33;;;;;;;3.73;2.90;;;15.20;99.90;;;;;;5004544;28;20496;-74
2022/07/03 03:37:01;;;;;;;3.33;3.03;;;15.20;99.90;;;;;;4998078;28;20808;-75
2022/07/03 03:39:28;;;;;;;6.93;3.03;;;15.20;99.90;;;;;;5012201;28;20507;-74
2022/07/03 03:41:55;;;;;;;3.30;3.10;;;15.20;99.90;;;;;;5012710;28;20458;-74
2022/07/03 03:44:22;;;;;;;4.70;3.40;;;15.20;99.90;;;;;;5011947;28;21229;-74
2022/07/03 03:46:50;;;;;;;3.37;3.07;;;15.30;99.90;;;;;;5010579;28;20433;-75
2022/07/03 03:49:16;;;;;;;3.30;3.00;;;15.20;99.90;;;;;;5006246;28;20529;-75
2022/07/03 03:51:43;;;;;;;7.23;2.83;;;15.20;99.90;;;;;;4993477;28;20822;-75
2022/07/03 03:54:11;;;;;;;3.37;3.10;;;15.30;99.90;;;;;;4993203;28;20497;-74
2022/07/03 03:56:38;;;;;;;5.80;3.30;;;15.30;99.90;;;;;;4994155;28;20442;-74
2022/07/03 03:59:04;;;;;;;6.40;3.37;;;15.30;99.90;;;;;;5007630;28;20873;-74
2022/07/03 04:01:31;;;;;;;4.53;3.10;;;15.20;99.90;;;;;;4993052;28;20455;-74
2022/07/03 04:03:59;;;;;;;4.50;4.03;;;15.20;99.90;;;;;;5002989;28;20488;-74
2022/07/03 04:06:25;;;;;;;4.20;3.90;;;15.20;99.90;;;;;;4996608;28;20909;-74
2022/07/03 04:08:52;;;;;;;3.60;3.30;;;15.20;99.90;;;;;;4993305;28;20455;-75
2022/07/03 04:11:20;;;;;;;7.67;4.30;;;15.20;99.90;;;;;;4992918;28;21117;-75
2022/07/03 04:13:47;;;;;;;4.47;3.87;;;15.10;99.90;;;;;;4992712;28;20426;-75
2022/07/03 04:16:13;;;;;;;4.00;3.57;;;15.10;99.90;;;;;;4992401;28;20475;-74
2022/07/03 04:18:40;;;;;;;4.50;4.10;;;15.10;99.90;;;;;;4988109;28;20452;-74
2022/07/03 04:21:07;;;;;;;5.13;3.60;;;15.10;99.90;;;;;;4990480;28;20443;-74
2022/07/03 04:23:33;;;;;;;5.93;4.17;;;15.10;99.90;;;;;;4993235;28;20458;-74
2022/07/03 04:26:04;;;;;;;5.00;4.23;;;15.10;99.90;;;;;;5011150;28;20555;-71
2022/07/03 04:28:33;;;;;;;5.00;3.70;;;15.20;99.90;;;;;;5011596;28;20520;-71
2022/07/03 04:30:59;;;;;;;6.60;4.67;;;15.20;99.90;;;;;;5009888;28;20430;-71
2022/07/03 04:33:26;;;;;;;4.13;3.23;;;15.30;99.90;;;;;;5010295;28;20458;-75
2022/07/03 04:35:53;;;;;;;4.83;3.60;;;15.30;99.90;;;;;;5002302;28;20445;-75
2022/07/03 04:38:19;;;;;;;9.73;4.43;;;15.60;99.90;;;;;;5011616;28;20430;-75
2022/07/03 04:40:46;;;;;;;5.93;4.23;;;16.00;99.90;;;;;;5010347;28;20421;-75
2022/07/03 04:43:13;;;;;;;5.30;4.50;;;16.30;99.90;;;;;;4993568;28;20461;-75
2022/07/03 04:45:41;;;;;;;3.50;3.30;;;16.60;99.90;;;;;;4992269;28;20873;-75
2022/07/03 04:48:07;;;;;;;3.97;3.37;;;16.80;99.90;;;;;;4992387;28;20451;-75
2022/07/03 04:50:34;;;;;;;3.57;3.27;;;17.00;99.90;;;;;;4992319;28;20426;-75
2022/07/03 04:53:01;;;;;;;4.40;4.00;;;17.30;99.90;;;;;;5011116;28;20442;-75
2022/07/03 04:55:27;;;;;;;5.50;3.67;;;17.40;99.90;;;;;;5004664;28;20478;-75
2022/07/03 04:57:54;;;;;;;4.63;4.23;;;17.40;99.90;;;;;;4996394;28;20494;-75
2022/07/03 05:00:21;;;;;;;3.53;3.33;;;17.40;99.90;;;;;;4992230;28;20972;-75
2022/07/03 05:02:49;;;;;;;6.63;4.47;;;17.30;99.90;;;;;;4993004;28;20426;-75
2022/07/03 05:05:15;;;;;;;4.77;4.37;;;17.40;99.90;;;;;;5005062;28;20478;-75
2022/07/03 05:07:42;;;;;;;5.80;4.00;;;17.50;99.90;;;;;;5000078;28;20424;-75
2022/07/03 05:10:09;;;;;;;6.70;4.50;;;17.50;99.90;;;;;;4984959;28;20484;-75
2022/07/03 05:12:35;;;;;;;4.53;4.03;;;17.70;99.90;;;;;;5003916;28;20429;-75
2022/07/03 05:15:03;;;;;;;14.07;5.17;;;17.80;99.90;;;;;;5002021;28;20528;-75
2022/07/03 05:17:29;;;;;;;9.83;4.13;;;18.00;99.90;;;;;;4991943;28;20515;-75
2022/07/03 05:22:38;;;;;;;5.77;5.20;;;18.30;99.90;;;;;;4998868;28;20782;-75
2022/07/03 05:25:06;;;;;;;3.30;3.10;;;18.30;99.90;;;;;;5010519;28;20489;-75
2022/07/03 05:27:35;;;;;;;5.30;4.80;;;18.30;99.90;;;;;;4999025;28;20455;-75
2022/07/03 05:30:02;;;;;;;4.47;4.17;;;18.30;99.90;;;;;;4992010;28;20836;-74
2022/07/03 05:32:28;;;;;;;5.80;3.90;;;18.20;99.90;;;;;;4992049;28;20455;-75
2022/07/03 05:34:55;;;;;;;4.53;4.00;;;18.20;99.90;;;;;;5002563;28;20533;-75
2022/07/03 05:37:23;;;;;;;3.70;3.40;;;18.40;99.90;;;;;;5010716;28;20889;-75
2022/07/03 05:39:49;;;;;;;5.93;4.63;;;18.40;99.90;;;;;;5002684;28;20481;-75
2022/07/03 05:42:15;;;;;;;6.70;4.50;;;18.40;99.90;;;;;;5011927;28;21157;-75
2022/07/03 05:44:42;;;;;;;6.93;4.37;;;18.50;99.90;;;;;;5014635;28;20274;-75
2022/07/03 05:47:08;;;;;;;4.43;4.03;;;18.50;99.90;;;;;;5011468;28;20458;-75
2022/07/03 05:49:35;;;;;;;4.53;3.70;;;18.50;99.90;;;;;;4996670;28;20812;-75
2022/07/03 05:52:02;;;;;;;4.10;3.80;;;18.70;99.90;;;;;;4995641;28;20521;-75
2022/07/03 05:54:30;;;;;;;4.63;4.00;;;19.00;99.90;;;;;;4995098;28;21057;-75
2022/07/03 05:56:57;;;;;;;5.00;3.97;;;19.30;99.90;;;;;;4995626;28;20847;-75
2022/07/03 05:59:23;;;;;;;6.20;3.90;;;19.40;99.90;;;;;;4998606;28;21181;-75
2022/07/03 06:01:50;;;;;;;4.10;3.80;;;19.60;99.90;;;;;;5007621;28;20459;-75
2022/07/03 06:04:17;;;;;;;4.83;4.27;;;19.70;99.90;;;;;;4999710;28;20900;-75
2022/07/03 06:06:43;;;;;;;5.13;4.10;;;19.70;99.90;;;;;;4996790;28;20455;-75
2022/07/03 06:09:10;;;;;;;10.30;4.00;;;19.60;99.90;;;;;;4994505;28;20459;-75
2022/07/03 06:11:38;;;;;;;4.10;3.80;;;19.60;99.90;;;;;;4995306;28;20458;-75
2022/07/03 06:14:05;;;;;;;5.23;3.83;;;19.50;99.90;;;;;;4996107;28;20510;-76
2022/07/03 06:16:32;;;;;;;4.30;3.77;;;19.50;99.90;;;;;;4995245;28;20501;-75
2022/07/03 06:18:59;;;;;;;3.27;3.07;;;19.60;99.90;;;;;;4995182;28;20455;-75
2022/07/03 06:21:25;;;;;;;4.40;3.57;;;19.70;99.90;;;;;;5014047;28;20517;-75
2022/07/03 06:23:52;;;;;;;6.63;3.43;;;19.80;99.90;;;;;;5013143;28;21041;-74
2022/07/03 06:26:19;;;;;;;4.20;3.40;;;19.80;99.90;;;;;;5003907;28;20462;-74
2022/07/03 06:28:47;;;;;;;3.67;3.40;;;19.90;99.90;;;;;;5013756;28;20425;-76
2022/07/03 06:31:13;;;;;;;5.77;3.30;;;20.00;99.90;;;;;;5012872;28;20465;-73
2022/07/03 06:33:40;;;;;;;3.87;3.30;;;20.10;99.90;;;;;;4994624;28;20882;-73
2022/07/03 06:36:07;;;;;;;7.37;3.30;;;20.20;99.90;;;;;;5002020;28;20474;-74
2022/07/03 06:38:34;;;;;;;3.73;3.43;;;20.30;99.90;;;;;;4986779;28;21233;-73
2022/07/03 06:41:00;;;;;;;3.60;3.37;;;20.30;99.90;;;;;;5010396;28;20450;-73
2022/07/03 06:43:27;;;;;;;4.53;3.67;;;20.20;99.90;;;;;;5005163;28;20538;-73
2022/07/03 06:45:55;;;;;;;3.30;3.10;;;20.20;99.90;;;;;;4998763;28;21001;-74
2022/07/03 06:48:22;;;;;;;3.70;3.40;;;20.30;99.90;;;;;;4995634;28;20459;-74
2022/07/03 06:50:48;;;;;;;4.17;3.20;;;20.60;99.90;;;;;;4994044;28;20455;-74
2022/07/03 06:53:15;;;;;;;3.97;3.50;;;20.90;99.90;;;;;;5007303;28;20454;-74
2022/07/03 06:55:42;;;;;;;5.00;3.10;;;21.00;99.90;;;;;;5010056;28;21030;-74
2022/07/03 06:58:08;;;;;;;4.80;3.07;;;21.00;99.90;;;;;;5013206;28;20454;-74
2022/07/03 07:00:36;;;;;;;3.30;3.10;;;21.20;99.90;;;;;;4993426;28;21222;-74
2022/07/03 07:03:04;;;;;;;3.20;3.00;;;21.40;99.90;;;;;;4987587;28;20467;-74
2022/07/03 07:05:30;;;;;;;3.00;2.80;;;21.60;99.90;;;;;;4988881;28;20496;-74
2022/07/03 07:07:57;;;;;;;4.60;2.80;;;22.00;99.90;;;;;;5013140;28;20454;-74
2022/07/03 07:10:24;;;;;;;3.53;3.23;;;22.20;99.90;;;;;;5011297;28;21185;-74
2022/07/03 07:12:51;;;;;;;4.07;2.40;;;22.40;99.90;;;;;;5012744;28;20465;-74
2022/07/03 07:15:17;;;;;;;7.03;2.63;;;22.70;99.90;;;;;;5004901;28;20471;-73
2022/07/03 07:17:44;;;;;;;3.77;2.80;;;22.80;99.90;;;;;;5009197;28;20870;-74
2022/07/03 07:20:12;;;;;;;3.63;3.30;;;22.70;99.90;;;;;;4994017;28;20451;-73
2022/07/03 07:22:39;;;;;;;3.57;2.93;;;22.90;99.90;;;;;;4995763;28;20599;-74
2022/07/03 07:25:06;;;;;;;2.93;2.73;;;23.10;99.90;;;;;;4993478;28;21038;-74
2022/07/03 07:27:33;;;;;;;2.70;2.50;;;23.10;99.90;;;;;;4993674;28;20459;-74
2022/07/03 07:29:59;;;;;;;3.10;2.90;;;23.20;99.90;;;;;;4993942;28;21105;-74
2022/07/03 07:32:26;;;;;;;3.67;3.37;;;23.50;99.90;;;;;;5002386;28;20462;-74
2022/07/03 07:34:53;;;;;;;2.93;2.67;;;23.80;99.90;;;;;;5000456;28;20467;-73
2022/07/03 07:37:20;;;;;;;7.77;2.30;;;24.10;99.90;;;;;;4993776;28;20529;-73
2022/07/03 07:39:47;;;;;;;9.83;4.47;;;24.30;99.90;;;;;;4993470;28;20871;-73
2022/07/03 07:42:15;;;;;;;3.57;2.70;;;24.40;99.90;;;;;;5000177;28;20973;-73
2022/07/03 07:44:42;;;;;;;2.80;2.43;;;24.20;99.90;;;;;;5002686;28;20487;-73
2022/07/03 07:47:08;;;;;;;3.40;2.67;;;24.00;99.90;;;;;;4993357;28;20459;-73
2022/07/03 07:49:35;;;;;;;3.50;2.97;;;23.90;99.90;;;;;;4992615;28;20870;-73
2022/07/03 07:52:02;;;;;;;2.60;2.40;;;24.10;99.90;;;;;;4992810;28;20518;-73
2022/07/03 07:54:30;;;;;;;2.70;2.50;;;24.30;99.90;;;;;;4992223;28;21049;-73
2022/07/03 07:56:57;;;;;;;2.37;2.27;;;24.30;99.90;;;;;;4995780;28;20458;-73
2022/07/03 07:59:23;;;;;;;3.03;2.83;;;24.20;99.90;;;;;;5011122;28;20459;-73
2022/07/03 08:07:19;;;;;;;2.63;2.43;;;24.90;99.90;;;;;;5003833;28;21102;-73
2022/07/03 08:09:47;;;;;;;3.07;2.20;;;25.00;99.90;;;;;;5008171;28;20457;-74
2022/07/03 08:12:14;;;;;;;2.50;2.30;;;25.00;99.90;;;;;;5009500;28;21016;-72
2022/07/03 08:14:41;;;;;;;3.13;2.53;;;25.10;99.90;;;;;;5009754;28;20474;-73
2022/07/03 08:17:07;;;;;;;2.63;2.43;;;25.20;99.90;;;;;;5005621;28;20458;-71
2022/07/03 08:19:34;;;;;;;2.87;2.37;;;25.50;99.90;;;;;;5006580;28;20451;-75
2022/07/03 08:22:01;;;;;;;2.50;2.30;;;25.50;99.90;;;;;;4992690;28;20459;-72
2022/07/03 08:24:28;;;;;;;2.83;2.33;;;25.60;99.90;;;;;;4991603;28;20574;-74
2022/07/03 08:26:56;;;;;;;2.50;2.30;;;25.90;99.90;;;;;;4992340;28;20522;-73
2022/07/03 08:29:22;;;;;;;2.40;2.30;;;25.80;99.90;;;;;;4991979;28;20497;-74
2022/07/03 08:31:49;;;;;;;3.60;2.60;;;25.90;99.90;;;;;;5002152;28;20512;-74
2022/07/03 08:34:16;;;;;;;3.97;2.80;;;25.70;99.90;;;;;;5004485;28;20451;-73
2022/07/03 08:36:43;;;;;;;3.00;2.80;;;25.70;99.90;;;;;;5001070;28;20961;-75
2022/07/03 08:39:10;;;;;;;2.77;2.50;;;25.90;99.90;;;;;;5010573;28;20516;-75
2022/07/03 08:41:38;;;;;;;3.40;2.63;;;26.10;99.90;;;;;;5010092;28;20461;-73
2022/07/03 08:44:06;;;;;;;3.13;2.80;;;26.20;99.90;;;;;;5010239;28;20482;-72
2022/07/03 08:46:34;;;;;;;2.90;2.70;;;26.20;99.90;;;;;;5010161;28;21024;-73
2022/07/03 08:49:01;;;;;;;2.60;2.40;;;26.40;99.90;;;;;;5010451;28;20528;-74
2022/07/03 08:51:28;;;;;;;2.37;2.17;;;26.50;99.90;;;;;;5010889;28;20450;-75
2022/07/03 08:53:55;;;;;;;3.90;2.40;;;26.30;99.90;;;;;;4994198;28;20472;-72
2022/07/03 08:56:23;;;;;;;5.33;2.37;;;26.40;99.90;;;;;;5004257;28;20482;-73
2022/07/03 08:58:50;;;;;;;3.23;2.50;;;26.70;99.90;;;;;;4992330;28;20455;-73
2022/07/03 09:01:19;;;;;;;2.60;2.40;;;27.10;99.90;;;;;;4991542;28;20454;-73
2022/07/03 09:03:46;;;;;;;7.40;2.93;;;27.20;99.90;;;;;;4999082;28;20458;-73
2022/07/03 09:06:14;;;;;;;2.13;2.03;;;27.30;99.90;;;;;;4997030;28;20521;-72
2022/07/03 09:08:41;;;;;;;2.30;2.20;;;27.50;99.90;;;;;;4992394;28;20459;-74
2022/07/03 09:11:09;;;;;;;2.30;2.20;;;28.00;99.90;;;;;;4991153;28;21022;-74
2022/07/03 09:13:35;;;;;;;2.93;2.20;;;28.30;99.90;;;;;;4991541;28;20854;-73
2022/07/03 09:16:02;;;;;;;2.60;2.40;;;28.50;99.90;;;;;;4992933;28;20517;-73
2022/07/03 09:18:40;;;;;;;5.73;2.17;;;28.60;99.90;;;;;;4995700;28;20523;-74
2022/07/03 09:21:08;;;;;;;4.80;1.80;;;28.20;99.90;;;;;;5008647;28;20500;-74
2022/07/03 09:23:39;;;;;;;4.80;2.23;;;27.80;99.90;;;;;;5002072;28;20463;-74
2022/07/03 09:26:07;;;;;;;3.17;1.80;;;27.60;99.90;;;;;;4988897;28;20489;-75
2022/07/03 09:28:46;;;;;;;5.50;2.07;;;27.50;99.90;;;;;;4995060;28;20451;-74
2022/07/03 09:31:15;;;;;;;1.80;1.70;;;27.50;99.90;;;;;;4995517;28;20478;-73
2022/07/03 09:33:59;;;;;;;3.70;2.30;;;27.50;99.90;;;;;;4995456;28;20455;-74
2022/07/03 09:36:40;;;;;;;2.17;1.97;;;27.90;99.90;;;;;;5007257;28;20442;-74
2022/07/03 09:39:22;;;;;;;3.23;1.77;;;28.20;99.90;;;;;;5014941;28;20457;-74
2022/07/03 09:41:53;;;;;;;1.90;1.80;;;28.60;99.90;;;;;;5014707;28;20473;-73
2022/07/03 09:44:33;;;;;;;2.87;2.63;;;28.50;99.90;;;;;;5014238;28;20469;-75
2022/07/03 09:47:13;;;;;;;2.20;2.00;;;28.60;99.90;;;;;;5003099;28;20454;-74
2022/07/03 09:49:51;;;;;;;2.00;1.80;;;28.50;99.90;;;;;;5002695;28;20459;-74
2022/07/03 09:52:34;;;;;;;5.47;1.80;;;28.70;99.90;;;;;;5014722;28;21032;-74
2022/07/03 09:55:12;;;;;;;1.60;1.50;;;29.10;99.90;;;;;;5013029;28;20481;-74
2022/07/03 09:57:40;;;;;;;1.87;1.67;;;29.20;99.90;;;;;;5003922;28;20513;-74
2022/07/03 10:00:12;;;;;;;1.63;1.37;;;29.20;99.90;;;;;;4987504;28;20466;-73
2022/07/03 10:02:55;;;;;;;4.27;1.30;;;28.90;99.90;;;;;;5007921;28;20513;-73
2022/07/03 10:05:25;;;;;;;3.33;1.50;;;28.40;99.90;;;;;;4992273;28;21296;-73
2022/07/03 10:07:57;;;;;;;3.20;1.67;;;28.20;99.90;;;;;;5010587;28;20508;-73
2022/07/03 10:10:25;;;;;;;2.83;1.87;;;28.50;99.90;;;;;;5014297;28;20461;-73
2022/07/03 10:12:53;;;;;;;2.13;1.70;;;28.60;99.90;;;;;;5013313;28;20461;-73
2022/07/03 10:15:21;;;;;;;5.40;2.15;;;28.60;99.90;;;;;;4996895;28;20448;-72
2022/07/03 10:17:50;;;;;;;3.90;1.50;;;28.70;99.90;;;;;;5001643;28;20218;-72
2022/07/03 10:20:26;;;;;;;1.70;1.37;;;29.00;99.90;;;;;;4999913;28;20450;-72
2022/07/03 10:22:53;;;;;;;7.63;1.80;;;29.00;99.90;;;;;;5013049;28;20547;-73
2022/07/03 10:25:20;;;;;;;2.47;1.60;;;29.10;99.90;;;;;;5013440;28;20548;-72
2022/07/03 10:27:47;;;;;;;1.97;1.87;;;29.50;99.90;;;;;;5010987;28;20454;-72
2022/07/03 10:30:16;;;;;;;2.00;1.37;;;29.50;99.90;;;;;;5013671;28;20661;-72
2022/07/03 10:32:45;;;;;;;2.60;2.27;;;29.40;99.90;;;;;;5013837;28;21045;-72
2022/07/03 10:35:14;;;;;;;3.30;1.50;;;29.60;99.90;;;;;;5011939;28;20462;-72
2022/07/03 10:37:53;;;;;;;1.87;1.77;;;29.80;99.90;;;;;;4994611;28;20482;-72
2022/07/03 10:46:14;;;;;;;5.40;1.20;;;29.40;99.90;;;;;;4994354;28;20592;-72
2022/07/03 10:49:06;;;;;;;2.07;1.40;;;29.50;99.90;;;;;;5009036;28;20508;-72
2022/07/03 10:51:52;;;;;;;4.90;1.50;;;29.50;99.90;;;;;;5013614;28;20461;-72
2022/07/03 10:54:22;;;;;;;3.77;1.60;;;29.10;99.90;;;;;;5012964;28;20470;-72
2022/07/03 10:57:18;;;;;;;3.23;1.67;;;28.60;99.90;;;;;;5008339;28;20450;-72
2022/07/03 11:00:02;;;;;;;1.63;1.40;;;28.40;99.90;;;;;;5012159;28;20446;-72
2022/07/03 11:02:34;;;;;;;2.10;1.50;;;28.40;99.90;;;;;;5011660;28;20457;-72
2022/07/03 11:05:12;;;;;;;2.63;1.37;;;28.20;99.90;;;;;;4992045;28;20498;-72
2022/07/03 11:08:07;;;;;;;4.70;1.50;;;28.20;99.90;;;;;;5002004;28;20451;-72
2022/07/03 11:10:40;;;;;;;3.40;1.43;;;28.40;99.90;;;;;;4999210;28;20446;-72
2022/07/03 11:13:15;;;;;;;4.70;1.50;;;28.60;99.90;;;;;;5003693;28;20494;-72
2022/07/03 11:15:43;;;;;;;2.80;1.60;;;28.80;99.90;;;;;;4993858;28;20863;-72
2022/07/03 11:18:15;;;;;;;1.73;1.63;;;28.90;99.90;;;;;;4994122;28;20466;-72
2022/07/03 11:21:29;;;;;;;1.83;1.70;;;29.10;99.90;;;;;;4993916;28;20509;-72
2022/07/03 11:24:18;;;;;;;2.90;1.60;;;29.40;99.90;;;;;;4992847;28;20456;-72
2022/07/03 11:26:46;;;;;;;1.77;1.43;;;29.60;99.90;;;;;;4995577;28;20487;-72
2022/07/03 11:29:29;;;;;;;3.40;1.37;;;29.60;99.90;;;;;;4998129;28;20458;-71
2022/07/03 11:31:56;;;;;;;2.10;1.90;;;29.60;99.30;;;;;;4991875;28;20455;-72
2022/07/03 11:34:23;;;;;;;1.97;1.57;;;29.60;99.20;;;;;;4993602;28;20475;-72
2022/07/03 11:36:49;;;;;;;5.70;1.60;;;29.90;99.40;;;;;;4992190;28;20444;-72
2022/07/03 11:39:19;;;;;;;1.93;1.57;;;30.30;98.90;;;;;;5007021;28;20500;-71
2022/07/03 11:41:48;;;;;;;19.07;1.70;;;30.30;98.80;;;;;;4993986;28;20466;-73
2022/07/03 11:44:21;;;;;;;6.07;1.40;;;30.00;98.70;;;;;;5001645;28;20466;-73
2022/07/03 11:46:51;;;;;;;6.90;1.13;;;29.80;99.00;;;;;;5008217;28;21069;-73
2022/07/03 11:49:19;;;;;;;2.53;1.53;;;29.90;99.10;;;;;;4995449;28;20958;-74
2022/07/03 11:51:56;;;;;;;3.57;1.73;;;29.60;99.00;;;;;;5006379;28;20533;-73
2022/07/03 11:54:23;;;;;;;2.50;1.40;;;29.70;99.60;;;;;;5007650;28;20528;-73
2022/07/03 11:56:51;;;;;;;1.50;1.40;;;29.90;99.40;;;;;;5006139;28;20486;-74
2022/07/03 11:59:18;;;;;;;3.60;1.40;;;29.70;98.30;;;;;;4999647;28;20881;-72
2022/07/03 12:01:47;;;;;;;2.40;1.50;;;29.50;98.90;;;;;;5006710;28;20534;-73
2022/07/03 12:04:16;;;;;;;2.87;1.50;;;29.50;99.40;;;;;;4998616;28;20561;-73
2022/07/03 12:06:44;;;;;;;4.23;1.50;;;29.90;98.30;;;;;;5000385;28;20546;-74
2022/07/03 12:09:16;;;;;;;1.30;1.20;;;30.40;99.20;;;;;;5001403;28;20458;-73
2022/07/03 12:11:52;;;;;;;4.00;1.50;;;30.70;97.30;;;;;;5001021;28;20501;-73
2022/07/03 12:14:34;;;;;;;1.50;1.40;;;30.50;97.20;;;;;;4997345;28;20485;-73
2022/07/03 12:17:01;;;;;;;4.13;2.10;;;30.10;97.60;;;;;;4997450;28;20551;-73
2022/07/03 12:19:27;;;;;;;2.70;1.30;;;29.90;97.50;;;;;;5008849;28;20462;-75
2022/07/03 12:21:54;;;;;;;3.07;1.83;;;30.00;97.00;;;;;;5003730;28;20508;-74
2022/07/03 12:24:21;;;;;;;28.17;14.47;;;29.90;96.40;;;;;;5007286;28;21001;-74
2022/07/03 12:26:49;;;;;;;4.60;3.33;;;29.80;97.20;;;;;;5005007;28;20493;-77
2022/07/03 12:29:17;;;;;;;2.83;2.40;;;29.70;97.20;;;;;;4997694;28;20552;-77
2022/07/03 12:31:47;;;;;;;3.10;1.40;;;29.80;96.50;;;;;;4987645;28;20455;-76
2022/07/03 12:34:15;;;;;;;1.30;1.20;;;30.20;97.40;;;;;;4994632;28;20459;-76
2022/07/03 12:36:55;;;;;;;1.30;1.20;;;30.30;96.00;;;;;;4995698;28;20541;-77
2022/07/03 12:39:22;;;;;;;1.47;1.20;;;30.30;96.00;;;;;;4994602;28;20509;-75
2022/07/03 12:41:48;;;;;;;1.57;1.40;;;30.30;95.30;;;;;;4995128;28;20484;-75
2022/07/03 12:44:20;;;;;;;8.30;1.20;;;30.40;95.20;;;;;;4993668;28;20504;-76
2022/07/03 12:46:49;;;;;;;1.70;1.10;;;30.60;95.70;;;;;;4997560;28;20901;-75
2022/07/03 12:49:16;;;;;;;3.33;1.17;;;30.70;94.80;;;;;;5000175;28;20457;-75
2022/07/03 12:51:45;;;;;;;4.07;1.30;;;30.40;94.80;;;;;;5000923;28;21008;-76
2022/07/03 12:54:13;;;;;;;1.60;1.50;;;30.40;94.70;;;;;;5004151;28;20454;-76
2022/07/03 12:56:41;;;;;;;2.70;1.30;;;30.50;94.70;;;;;;5002212;28;20452;-75
2022/07/03 12:59:19;;;;;;;1.70;1.37;;;30.80;94.90;;;;;;5003807;28;20626;-75
2022/07/03 13:02:01;;;;;;;1.40;1.30;;;30.90;94.00;;;;;;4996841;28;20446;-75
2022/07/03 13:04:32;;;;;;;1.67;1.40;;;30.70;92.80;;;;;;4995584;28;20479;-76
2022/07/03 13:07:03;;;;;;;6.93;1.97;;;30.40;93.60;;;;;;4998409;28;20533;-75
2022/07/03 13:09:30;;;;;;;7.33;6.33;;;30.60;92.80;;;;;;5001245;28;20449;-73
2022/07/03 13:11:57;;;;;;;46.70;25.23;;;30.90;92.80;;;;;;5009249;28;20480;-75
2022/07/03 13:14:24;;;;;;;7.77;4.50;;;31.00;92.40;;;;;;5009444;28;20509;-78
2022/07/03 13:16:54;;;;;;;52.27;43.80;;;31.10;91.20;;;;;;4988313;28;20533;-77